Time;durP1;ratioP1;P1;durP2;ratioP2;P2;SDS_P1;SDS_P2;PMS_P1;PMS_P2;Temp;Humidity;BMP_temperature;BMP_pressure;BME280_temperature;BME280_humidity;BME280_pressure;Samples;Min_cycle;Max_cycle;Signal;HPM_P1;HPM_P2
2023/05/21 00:00:59;;;;;;;2.25;1.42;;;;;;;15.02;62.23;102024.50;5113939;27;96882;-27
2023/05/21 00:03:27;;;;;;;4.10;1.23;;;;;;;15.00;62.47;102016.41;5097706;27;99398;-27
2023/05/21 00:05:52;;;;;;;1.67;1.10;;;;;;;14.99;62.44;102017.41;5079246;27;100911;-27
2023/05/21 00:08:17;;;;;;;2.13;1.33;;;;;;;15.01;62.37;102028.19;5098359;27;96491;-27
2023/05/21 00:10:43;;;;;;;1.65;1.00;;;;;;;15.01;62.83;102031.78;5097346;27;98859;-28
2023/05/21 00:13:09;;;;;;;2.30;1.17;;;;;;;15.02;62.68;102021.78;5097279;27;99322;-27
2023/05/21 00:15:35;;;;;;;5.70;1.67;;;;;;;14.99;62.22;102014.66;5079339;27;101487;-28
2023/05/21 00:18:00;;;;;;;1.92;1.20;;;;;;;15.04;62.73;102017.09;5079314;27;97339;-27
2023/05/21 00:20:28;;;;;;;2.30;1.20;;;;;;;15.00;62.22;102007.34;5097721;27;96857;-28
2023/05/21 00:22:53;;;;;;;1.40;1.02;;;;;;;15.02;62.59;102005.41;5096976;27;99365;-27
2023/05/21 00:25:19;;;;;;;1.73;0.85;;;;;;;14.99;62.21;102002.84;5096985;27;99651;-28
2023/05/21 00:27:44;;;;;;;1.33;0.88;;;;;;;14.94;61.93;101994.94;5097804;27;96504;-28
2023/05/21 00:30:09;;;;;;;2.75;1.10;;;;;;;15.01;62.18;102004.50;5097599;27;96787;-28
2023/05/21 00:32:35;;;;;;;2.97;1.48;;;;;;;14.96;62.18;102003.91;5096635;27;98836;-27
2023/05/21 00:35:01;;;;;;;2.47;1.17;;;;;;;14.94;62.45;101996.81;5061742;27;101172;-29
2023/05/21 00:37:33;;;;;;;3.58;1.27;;;;;;;15.01;62.00;102011.81;5097544;27;96635;-28
2023/05/21 00:39:59;;;;;;;3.28;1.27;;;;;;;14.97;62.91;102004.78;5097606;27;96693;-27
2023/05/21 00:42:26;;;;;;;2.50;1.10;;;;;;;14.96;62.50;102003.91;5113187;27;100772;-27
2023/05/21 00:44:53;;;;;;;1.20;0.85;;;;;;;14.96;62.80;101998.47;5078393;27;101742;-27
2023/05/21 00:47:20;;;;;;;2.72;1.30;;;;;;;14.91;62.22;101989.69;5112793;27;97016;-28
2023/05/21 00:49:47;;;;;;;1.52;1.00;;;;;;;15.01;62.53;102007.25;5078280;27;96878;-27
2023/05/21 00:52:13;;;;;;;1.67;1.08;;;;;;;15.00;62.17;102005.50;5078312;27;101764;-27
2023/05/21 00:54:40;;;;;;;1.75;1.15;;;;;;;15.00;63.12;102007.34;5078293;27;101033;-28
2023/05/21 00:57:05;;;;;;;3.40;1.13;;;;;;;15.02;63.17;102002.69;5078630;27;96598;-28
2023/05/21 00:59:32;;;;;;;4.13;1.25;;;;;;;15.02;62.60;101991.78;5078539;27;96886;-27
2023/05/21 01:02:04;;;;;;;2.35;1.40;;;;;;;15.01;63.29;101988.13;5112645;27;101574;-28
2023/05/21 01:04:30;;;;;;;1.15;0.95;;;;;;;15.03;63.37;101993.50;5078591;27;101369;-27
2023/05/21 01:06:57;;;;;;;1.80;1.20;;;;;;;14.98;63.57;101991.06;5078380;27;96641;-27
2023/05/21 01:09:24;;;;;;;3.10;1.40;;;;;;;14.96;63.65;101995.72;5096679;27;96842;-28
2023/05/21 01:11:50;;;;;;;2.80;1.40;;;;;;;14.97;64.07;101989.31;5077507;27;101182;-28
2023/05/21 01:14:18;;;;;;;1.63;1.05;;;;;;;14.93;64.30;101987.75;5077879;27;101126;-28
2023/05/21 01:16:45;;;;;;;2.85;1.40;;;;;;;14.94;64.26;101991.34;5112738;27;96577;-27
2023/05/21 01:19:19;;;;;;;1.95;1.17;;;;;;;14.94;64.56;101991.34;5112834;27;96802;-28
2023/05/21 01:22:06;;;;;;;1.90;1.13;;;;;;;14.97;64.74;101988.41;5096471;27;99521;-28
2023/05/21 01:24:32;;;;;;;3.10;1.50;;;;;;;14.90;64.75;101981.59;5077887;27;100845;-27
2023/05/21 01:27:00;;;;;;;2.13;1.10;;;;;;;14.91;64.50;101972.44;5112713;27;96734;-28
2023/05/21 01:29:25;;;;;;;3.00;1.15;;;;;;;14.97;65.09;101977.50;5113094;27;96899;-27
2023/05/21 01:32:12;;;;;;;2.95;1.20;;;;;;;14.97;65.56;101977.50;5096086;27;99245;-27
2023/05/21 01:35:03;;;;;;;1.40;0.95;;;;;;;14.91;65.03;101975.19;5096549;27;97416;-27
2023/05/21 01:37:51;;;;;;;1.73;1.15;;;;;;;14.96;66.57;101981.22;5077776;27;96635;-27
2023/05/21 01:40:33;;;;;;;5.03;1.20;;;;;;;14.96;65.23;101978.50;5077994;27;96728;-28
2023/05/21 01:43:00;;;;;;;2.70;1.42;;;;;;;14.93;65.59;101982.28;5112216;27;101094;-30
2023/05/21 01:45:27;;;;;;;1.25;0.80;;;;;;;14.98;64.86;101979.28;5112052;27;100587;-28
2023/05/21 01:47:54;;;;;;;1.98;1.35;;;;;;;14.96;65.80;101986.69;5096528;27;96473;-27
2023/05/21 01:50:23;;;;;;;1.92;1.02;;;;;;;14.99;65.72;101986.47;5078239;27;96882;-28
2023/05/21 01:52:53;;;;;;;2.97;1.17;;;;;;;15.00;65.50;101986.41;5077359;27;100949;-29
2023/05/21 01:55:23;;;;;;;2.22;1.20;;;;;;;15.00;64.97;101971.88;5112484;27;100834;-27
2023/05/21 01:57:51;;;;;;;2.10;1.35;;;;;;;14.94;64.72;101966.78;5077815;27;96749;-27
2023/05/21 02:00:17;;;;;;;2.38;1.40;;;;;;;15.02;65.01;101979.00;5077711;27;96792;-28
2023/05/21 02:02:42;;;;;;;2.42;1.10;;;;;;;15.00;65.76;101972.75;5094665;27;97763;-28
2023/05/21 02:05:08;;;;;;;1.65;1.20;;;;;;;15.06;65.53;101991.47;5096072;27;97956;-27
2023/05/21 02:07:33;;;;;;;1.50;0.90;;;;;;;15.06;66.04;101976.94;5095833;27;96567;-29
2023/05/21 02:09:59;;;;;;;2.30;1.33;;;;;;;15.06;66.30;101964.19;5096157;27;96755;-28
2023/05/21 02:12:24;;;;;;;1.58;0.95;;;;;;;15.09;66.41;101968.56;5095868;27;96778;-27
2023/05/21 02:14:49;;;;;;;1.95;1.02;;;;;;;15.07;65.41;101965.06;5095783;27;99209;-27
2023/05/21 02:17:16;;;;;;;3.42;1.25;;;;;;;15.04;65.84;101962.50;5095839;27;97467;-27
2023/05/21 02:19:43;;;;;;;1.77;1.23;;;;;;;15.04;65.84;101962.50;5096333;27;96942;-27
2023/05/21 02:22:09;;;;;;;2.05;1.40;;;;;;;15.07;66.18;101967.78;5077087;27;101457;-28
2023/05/21 02:24:35;;;;;;;3.15;1.33;;;;;;;15.06;66.20;101963.28;5077148;27;100713;-27
2023/05/21 02:27:01;;;;;;;2.00;1.38;;;;;;;15.04;66.21;101957.03;5095506;27;96693;-28
2023/05/21 02:29:27;;;;;;;2.28;1.30;;;;;;;15.04;66.27;101951.59;5095763;27;96825;-27
2023/05/21 02:31:52;;;;;;;1.33;1.02;;;;;;;15.09;66.06;101968.56;5095602;27;97514;-28
2023/05/21 02:34:19;;;;;;;1.75;1.13;;;;;;;15.09;66.08;101965.84;5095271;27;97767;-28
2023/05/21 02:36:47;;;;;;;1.85;1.20;;;;;;;15.07;66.26;101962.34;5095690;27;96679;-28
2023/05/21 02:39:13;;;;;;;2.92;1.08;;;;;;;15.06;67.24;101968.75;5077120;27;96846;-27
2023/05/21 02:41:38;;;;;;;3.08;1.52;;;;;;;15.02;66.92;101962.63;5076791;27;101012;-27
2023/05/21 02:44:04;;;;;;;1.20;1.00;;;;;;;15.02;67.32;101962.63;5095998;27;98704;-28
2023/05/21 02:46:29;;;;;;;1.42;1.10;;;;;;;15.01;67.12;101958.13;5095666;27;96489;-27
2023/05/21 02:48:54;;;;;;;2.30;1.33;;;;;;;15.00;66.79;101960.97;5095987;27;96906;-28
2023/05/21 02:51:20;;;;;;;2.90;1.08;;;;;;;15.02;67.76;101961.75;5094583;27;99908;-27
2023/05/21 02:53:45;;;;;;;2.42;1.42;;;;;;;15.02;67.24;101965.34;5095569;27;97225;-27
2023/05/21 02:56:11;;;;;;;2.22;1.50;;;;;;;15.00;67.12;101966.41;5095490;27;96692;-27
2023/05/21 02:58:36;;;;;;;2.22;1.25;;;;;;;15.01;67.08;101963.56;5095605;27;96889;-28
2023/05/21 03:01:02;;;;;;;2.05;1.02;;;;;;;15.01;67.48;101965.44;5095114;27;99318;-28
2023/05/21 03:03:27;;;;;;;2.22;1.50;;;;;;;14.98;67.72;101957.44;5095161;27;97311;-28
2023/05/21 03:05:52;;;;;;;2.05;1.35;;;;;;;15.02;67.30;101967.22;5095481;27;96712;-27
2023/05/21 03:08:18;;;;;;;3.67;1.60;;;;;;;14.99;68.01;101967.38;5095778;27;96784;-28
2023/05/21 03:10:43;;;;;;;1.70;1.02;;;;;;;14.97;67.86;101964.75;5095084;27;97940;-27
2023/05/21 03:13:08;;;;;;;1.75;1.27;;;;;;;14.98;67.36;101954.72;5096575;27;97353;-28
2023/05/21 03:15:34;;;;;;;2.83;1.50;;;;;;;15.00;67.40;101967.28;5098457;27;96515;-27
2023/05/21 03:18:00;;;;;;;2.28;1.55;;;;;;;15.00;67.80;101959.09;5098996;27;96860;-27
2023/05/21 03:20:26;;;;;;;2.92;1.48;;;;;;;14.99;68.12;101956.47;5079707;27;101089;-28
2023/05/21 03:22:53;;;;;;;2.05;1.30;;;;;;;15.00;68.06;101955.50;5079776;27;101289;-27
2023/05/21 03:25:20;;;;;;;2.83;1.40;;;;;;;14.96;68.16;101951.22;5080024;27;96597;-28
2023/05/21 03:27:46;;;;;;;2.15;1.35;;;;;;;15.01;68.23;101957.25;5099166;27;96923;-28
2023/05/21 03:30:12;;;;;;;2.15;1.25;;;;;;;14.97;68.22;101948.41;5079643;27;101342;-27
2023/05/21 03:32:40;;;;;;;2.42;1.25;;;;;;;15.03;68.48;101963.50;5097850;27;99107;-27
2023/05/21 03:35:06;;;;;;;1.70;1.27;;;;;;;14.98;68.60;101952.00;5079843;27;96603;-27
2023/05/21 03:37:31;;;;;;;2.33;1.40;;;;;;;15.02;67.89;101956.28;5079977;27;96935;-28
2023/05/21 03:39:56;;;;;;;2.63;1.35;;;;;;;15.02;68.40;101959.91;5097798;27;98053;-29
2023/05/21 03:42:22;;;;;;;2.45;1.48;;;;;;;15.00;68.47;101959.09;5098523;27;97300;-27
2023/05/21 03:44:47;;;;;;;1.83;1.30;;;;;;;14.91;67.68;101945.16;5098506;27;96584;-27
2023/05/21 03:47:12;;;;;;;3.28;1.55;;;;;;;14.95;68.28;101955.78;5098684;27;96882;-27
2023/05/21 03:49:38;;;;;;;2.45;1.38;;;;;;;14.99;67.95;101968.28;5097856;27;97793;-27
2023/05/21 03:52:03;;;;;;;2.10;1.25;;;;;;;14.97;69.01;101964.75;5097822;27;99071;-27
2023/05/21 03:54:29;;;;;;;5.20;1.33;;;;;;;14.96;68.37;101959.38;5098026;27;96641;-27
2023/05/21 03:56:54;;;;;;;2.95;1.52;;;;;;;14.98;68.04;101965.63;5098489;27;96833;-27
2023/05/21 03:59:20;;;;;;;4.47;1.48;;;;;;;14.98;68.20;101958.31;5098050;27;98031;-28
2023/05/21 04:01:45;;;;;;;1.55;1.10;;;;;;;14.94;68.63;101954.03;5097882;27;99132;-27
2023/05/21 04:04:11;;;;;;;2.38;1.48;;;;;;;14.90;68.39;101941.56;5078775;27;96705;-27
2023/05/21 04:06:37;;;;;;;2.20;1.30;;;;;;;14.94;68.80;101956.75;5098213;27;96763;-27
2023/05/21 04:09:03;;;;;;;4.53;1.20;;;;;;;14.93;68.31;101948.69;5097556;27;97995;-27
2023/05/21 04:11:30;;;;;;;2.53;1.50;;;;;;;14.92;67.91;101945.06;5097555;27;99582;-27
2023/05/21 04:13:55;;;;;;;4.45;1.95;;;;;;;14.96;68.14;101949.34;5079206;27;96772;-28
2023/05/21 04:16:21;;;;;;;1.70;1.10;;;;;;;14.96;68.32;101948.47;5098194;27;96791;-28
2023/05/21 04:18:46;;;;;;;3.08;1.63;;;;;;;14.92;68.07;101939.63;5097294;27;99361;-28
2023/05/21 04:21:12;;;;;;;3.78;1.58;;;;;;;14.99;68.10;101953.72;5097712;27;99427;-27
2023/05/21 04:23:37;;;;;;;3.17;1.27;;;;;;;14.94;68.04;101942.22;5097502;27;96677;-27
2023/05/21 04:26:03;;;;;;;2.60;1.55;;;;;;;14.97;68.13;101955.69;5097411;27;96778;-29
2023/05/21 04:28:29;;;;;;;3.22;1.27;;;;;;;14.96;68.14;101953.94;5097143;27;97457;-27
2023/05/21 04:30:57;;;;;;;2.72;1.50;;;;;;;14.95;68.62;101955.78;5097478;27;97741;-27
2023/05/21 04:33:23;;;;;;;3.17;1.70;;;;;;;14.89;68.58;101950.69;5078020;27;96967;-28
2023/05/21 04:35:50;;;;;;;2.55;1.50;;;;;;;14.90;68.19;101948.84;5097688;27;96815;-27
2023/05/21 04:38:18;;;;;;;4.43;1.55;;;;;;;14.94;67.80;101954.03;5113219;27;101114;-27
2023/05/21 04:40:45;;;;;;;2.45;1.42;;;;;;;14.94;68.07;101947.69;5097304;27;97799;-27
2023/05/21 04:43:10;;;;;;;3.78;1.75;;;;;;;14.94;68.07;101953.16;5113364;27;96698;-27
2023/05/21 04:45:36;;;;;;;3.53;1.55;;;;;;;14.95;68.63;101955.78;5098025;27;96764;-28
2023/05/21 04:48:01;;;;;;;1.95;1.33;;;;;;;14.99;67.68;101956.47;5097011;27;99550;-27
2023/05/21 04:50:29;;;;;;;3.38;1.63;;;;;;;14.99;68.60;101951.91;5096823;27;99535;-28
2023/05/21 04:52:55;;;;;;;5.15;1.55;;;;;;;14.95;68.09;101944.88;5078233;27;96615;-27
2023/05/21 04:55:21;;;;;;;2.50;1.38;;;;;;;14.96;68.70;101943.88;5097477;27;96785;-28
2023/05/21 04:57:47;;;;;;;2.67;1.35;;;;;;;14.99;68.14;101956.47;5096865;27;97481;-27
2023/05/21 05:00:12;;;;;;;2.60;1.63;;;;;;;15.02;68.15;101959.91;5096959;27;97854;-27
2023/05/21 05:02:38;;;;;;;4.13;1.75;;;;;;;14.98;69.11;101949.25;5097270;27;96495;-27
2023/05/21 05:05:03;;;;;;;2.83;1.40;;;;;;;14.97;69.57;101950.22;5097263;27;96775;-27
2023/05/21 05:07:29;;;;;;;3.00;1.95;;;;;;;15.00;69.70;101955.50;5096804;27;97422;-28
2023/05/21 05:09:54;;;;;;;2.92;1.65;;;;;;;14.96;70.03;101949.34;5096819;27;100249;-29
2023/05/21 05:12:19;;;;;;;3.72;1.92;;;;;;;14.99;70.07;101949.19;5097079;27;96646;-27
2023/05/21 05:14:45;;;;;;;5.13;1.95;;;;;;;14.98;70.84;101963.78;5097001;27;96767;-28
2023/05/21 05:17:13;;;;;;;5.40;2.30;;;;;;;14.92;70.91;101946.91;5077206;27;99638;-27
2023/05/21 05:19:38;;;;;;;3.53;1.98;;;;;;;14.96;70.56;101948.47;5077870;27;99351;-27
2023/05/21 05:22:04;;;;;;;2.85;1.77;;;;;;;14.97;70.61;101953.84;5096957;27;96617;-27
2023/05/21 05:24:29;;;;;;;4.03;1.77;;;;;;;14.92;70.36;101936.00;5096742;27;96901;-27
2023/05/21 05:26:55;;;;;;;2.47;1.58;;;;;;;15.01;70.98;101957.25;5096640;27;97484;-27
2023/05/21 05:29:20;;;;;;;4.38;1.95;;;;;;;15.00;71.19;101948.19;5096192;27;98651;-29
2023/05/21 05:31:45;;;;;;;3.97;2.17;;;;;;;14.98;70.75;101936.50;5096571;27;96700;-28
2023/05/21 05:34:11;;;;;;;3.00;1.95;;;;;;;15.05;71.11;101937.00;5097077;27;96783;-27
2023/05/21 05:36:36;;;;;;;4.22;2.35;;;;;;;15.01;71.17;101922.66;5096382;27;98348;-27
2023/05/21 05:39:01;;;;;;;3.85;1.85;;;;;;;15.03;72.46;101931.63;5096080;27;99249;-27
2023/05/21 05:41:27;;;;;;;3.13;1.90;;;;;;;15.06;71.69;101934.19;5096147;27;96516;-27
2023/05/21 05:43:52;;;;;;;3.33;2.13;;;;;;;15.04;73.02;101927.03;5096578;27;96651;-28
2023/05/21 05:46:17;;;;;;;4.57;1.70;;;;;;;15.09;71.91;101922.19;5096319;27;97411;-27
2023/05/21 05:48:43;;;;;;;3.28;1.85;;;;;;;15.13;71.41;101925.59;5096264;27;97125;-27
2023/05/21 05:51:08;;;;;;;4.03;1.88;;;;;;;15.19;71.62;101928.81;5096187;27;97444;-29
2023/05/21 05:53:33;;;;;;;5.18;2.08;;;;;;;15.22;71.34;101934.06;5096354;27;96723;-27
2023/05/21 05:55:59;;;;;;;3.00;1.98;;;;;;;15.26;72.16;101927.44;5096140;27;97993;-27
2023/05/21 05:58:24;;;;;;;3.70;1.90;;;;;;;15.29;71.56;101931.81;5096440;27;97744;-27
2023/05/21 06:00:50;;;;;;;3.90;2.30;;;;;;;15.32;70.92;101934.34;5096055;27;96706;-27
2023/05/21 06:03:16;;;;;;;4.43;2.20;;;;;;;15.33;71.35;101936.13;5096183;27;96502;-28
2023/05/21 06:05:42;;;;;;;3.45;2.05;;;;;;;15.36;71.88;101932.31;5095546;27;97925;-28
2023/05/21 06:08:07;;;;;;;3.50;2.05;;;;;;;15.36;71.23;101932.31;5096055;27;97806;-27
2023/05/21 06:10:33;;;;;;;2.90;1.88;;;;;;;15.40;72.21;101936.59;5096095;27;96828;-27
2023/05/21 06:12:58;;;;;;;2.83;1.70;;;;;;;15.38;73.37;101936.69;5096301;27;96887;-27
2023/05/21 06:15:23;;;;;;;2.90;1.60;;;;;;;15.41;72.00;101932.88;5095434;27;99278;-27
2023/05/21 06:17:49;;;;;;;2.85;1.63;;;;;;;15.42;71.37;101929.16;5095815;27;97617;-27
2023/05/21 06:20:15;;;;;;;3.70;1.80;;;;;;;15.44;71.31;101927.22;5096560;27;96547;-28
2023/05/21 06:22:40;;;;;;;3.22;1.88;;;;;;;15.53;71.40;101925.75;5096479;27;96548;-27
2023/05/21 06:25:06;;;;;;;4.05;2.10;;;;;;;15.58;71.34;101935.38;5095332;27;104090;-28
2023/05/21 06:27:32;;;;;;;2.30;1.50;;;;;;;15.62;71.46;101928.75;5076990;27;100882;-28
2023/05/21 06:29:57;;;;;;;3.85;1.83;;;;;;;15.66;71.52;101943.97;5095221;27;96684;-27
2023/05/21 06:32:24;;;;;;;2.92;1.70;;;;;;;15.68;71.98;101935.66;5095074;27;96823;-27
2023/05/21 06:34:49;;;;;;;2.45;1.52;;;;;;;15.78;70.92;101935.97;5111373;27;101447;-28
2023/05/21 06:37:19;;;;;;;2.72;1.67;;;;;;;15.88;70.48;101942.59;5095451;27;102429;-28
2023/05/21 06:39:45;;;;;;;2.50;1.63;;;;;;;15.95;71.93;101938.47;5077291;27;96696;-27
2023/05/21 06:42:10;;;;;;;2.70;1.65;;;;;;;15.99;71.47;101934.53;5095597;27;96859;-28
2023/05/21 06:44:35;;;;;;;4.20;1.88;;;;;;;16.01;70.99;101920.78;5095496;27;97955;-27
2023/05/21 06:47:01;;;;;;;2.30;1.73;;;;;;;16.06;70.28;101937.72;5095912;27;97778;-28
2023/05/21 06:49:26;;;;;;;5.90;1.88;;;;;;;16.07;70.99;101942.25;5099384;27;96550;-28
2023/05/21 06:51:51;;;;;;;2.67;1.67;;;;;;;16.14;70.85;101938.97;5099374;27;97784;-29
2023/05/21 06:54:17;;;;;;;4.15;1.73;;;;;;;16.16;70.95;101938.88;5098419;27;97844;-27
2023/05/21 06:56:42;;;;;;;3.15;1.73;;;;;;;16.18;71.33;101938.75;5098825;27;99220;-29
2023/05/21 06:59:07;;;;;;;2.88;1.63;;;;;;;16.10;71.20;101931.97;5099067;27;96643;-28
2023/05/21 07:01:33;;;;;;;3.53;1.85;;;;;;;16.11;70.65;101938.31;5099151;27;96809;-27
2023/05/21 07:03:58;;;;;;;5.35;2.03;;;;;;;16.16;71.25;101936.16;5098823;27;97495;-29
2023/05/21 07:06:24;;;;;;;3.33;2.00;;;;;;;16.24;71.66;101941.97;5098628;27;99298;-27
2023/05/21 07:08:49;;;;;;;3.72;2.17;;;;;;;16.32;71.47;101941.44;5099220;27;96708;-27
2023/05/21 07:11:15;;;;;;;4.90;1.98;;;;;;;16.35;71.64;101941.22;5099086;27;96732;-27
2023/05/21 07:13:40;;;;;;;4.05;2.08;;;;;;;16.38;71.19;101948.38;5098317;27;99733;-27
2023/05/21 07:16:06;;;;;;;4.10;2.33;;;;;;;16.34;70.48;101937.63;5098860;27;97761;-28
2023/05/21 07:18:31;;;;;;;2.95;1.90;;;;;;;16.38;71.08;101951.09;5098309;27;96493;-28
2023/05/21 07:20:57;;;;;;;2.67;1.80;;;;;;;16.39;70.70;101945.50;5098968;27;96751;-30
2023/05/21 07:23:22;;;;;;;3.42;2.10;;;;;;;16.44;70.89;101951.53;5098256;27;99500;-28
2023/05/21 07:25:48;;;;;;;3.55;2.10;;;;;;;16.44;70.58;101943.31;5098538;27;98322;-28
2023/05/21 07:28:13;;;;;;;7.15;2.55;;;;;;;16.47;70.77;101947.69;5098631;27;96724;-27
2023/05/21 07:30:38;;;;;;;3.25;1.92;;;;;;;16.44;70.95;101948.78;5098694;27;96792;-28
2023/05/21 07:33:04;;;;;;;6.88;2.40;;;;;;;16.39;71.19;101937.31;5097482;27;98427;-27
2023/05/21 07:35:29;;;;;;;3.10;1.92;;;;;;;16.46;70.60;101951.44;5098723;27;97910;-29
2023/05/21 07:37:55;;;;;;;4.18;2.00;;;;;;;16.49;71.18;101953.94;5098679;27;96528;-27
2023/05/21 07:40:20;;;;;;;4.75;2.08;;;;;;;16.54;71.03;101949.94;5079894;27;96904;-27
2023/05/21 07:42:45;;;;;;;4.38;1.83;;;;;;;16.61;70.63;101949.50;5097320;27;104300;-27
2023/05/21 07:45:11;;;;;;;4.72;2.33;;;;;;;16.66;69.99;101934.53;5098348;27;97607;-28
2023/05/21 07:47:36;;;;;;;7.82;2.10;;;;;;;16.82;69.67;101950.75;5079748;27;96645;-28
2023/05/21 07:50:02;;;;;;;3.22;1.95;;;;;;;16.92;70.05;101946.41;5098442;27;96776;-27
2023/05/21 07:52:27;;;;;;;5.10;2.03;;;;;;;16.91;70.57;101921.88;5098142;27;97985;-28
2023/05/21 07:54:52;;;;;;;2.72;1.70;;;;;;;16.99;70.20;101941.34;5097923;27;97755;-28
2023/05/21 07:57:17;;;;;;;3.88;2.03;;;;;;;17.03;70.04;101942.91;5098390;27;96453;-28
2023/05/21 07:59:44;;;;;;;2.63;2.03;;;;;;;17.00;70.16;101934.91;5097229;27;96795;-27
2023/05/21 08:02:09;;;;;;;7.40;2.22;;;;;;;17.00;70.48;101934.03;5079128;27;101204;-28
2023/05/21 08:04:35;;;;;;;8.25;2.42;;;;;;;17.00;69.60;101940.38;5079252;27;99367;-28
2023/05/21 08:07:01;;;;;;;4.15;2.50;;;;;;;17.12;69.40;101935.91;5097473;27;96559;-27
2023/05/21 08:09:27;;;;;;;4.43;2.25;;;;;;;17.11;69.75;101931.38;5097777;27;96861;-27
2023/05/21 08:11:52;;;;;;;3.75;1.98;;;;;;;17.17;69.54;101926.34;5097752;27;98071;-27
2023/05/21 08:14:17;;;;;;;5.38;2.38;;;;;;;17.34;69.11;101932.47;5097455;27;99573;-27
2023/05/21 08:16:43;;;;;;;4.70;2.03;;;;;;;17.46;69.31;101939.78;5098118;27;96596;-27
2023/05/21 08:19:09;;;;;;;5.30;2.08;;;;;;;17.47;68.55;101937.91;5098150;27;96872;-28
2023/05/21 08:21:35;;;;;;;3.85;2.00;;;;;;;17.51;68.24;101931.22;5097672;27;97390;-28
2023/05/21 08:24:01;;;;;;;3.78;2.28;;;;;;;17.63;68.63;101935.81;5097748;27;99337;-28
2023/05/21 08:26:27;;;;;;;3.50;2.10;;;;;;;17.65;67.64;101924.75;5097962;27;96493;-29
2023/05/21 08:28:52;;;;;;;4.57;2.15;;;;;;;17.73;68.60;101936.88;5079233;27;96826;-27
2023/05/21 08:31:18;;;;;;;4.22;2.40;;;;;;;17.69;68.17;101935.34;5096958;27;97534;-27
2023/05/21 08:33:55;;;;;;;4.40;2.55;;;;;;;17.67;68.05;101931.84;5096931;27;97595;-28
2023/05/21 08:36:20;;;;;;;3.97;2.30;;;;;;;17.70;67.72;101928.00;5097581;27;96645;-28
2023/05/21 08:38:46;;;;;;;5.95;2.60;;;;;;;17.83;67.32;101931.63;5097704;27;96774;-28
2023/05/21 08:41:12;;;;;;;3.67;2.42;;;;;;;17.83;67.17;101921.53;5097112;27;97878;-27
2023/05/21 08:43:38;;;;;;;3.75;2.28;;;;;;;17.96;67.01;101926.09;5078601;27;100928;-27
2023/05/21 08:46:05;;;;;;;4.43;2.08;;;;;;;18.02;67.19;101914.66;5113351;27;96609;-27
2023/05/21 08:48:31;;;;;;;4.47;2.35;;;;;;;18.04;67.31;101935.50;5079191;27;96820;-28
2023/05/21 08:50:58;;;;;;;9.13;2.22;;;;;;;17.97;66.88;101922.34;5112862;27;101007;-27
2023/05/21 08:53:26;;;;;;;5.28;2.72;;;;;;;18.04;66.66;101918.13;5078398;27;100942;-28
2023/05/21 08:55:54;;;;;;;4.35;2.30;;;;;;;18.18;66.51;101914.34;5096769;27;96694;-27
2023/05/21 08:58:20;;;;;;;3.78;2.25;;;;;;;18.26;65.99;101922.88;5113070;27;96791;-27
2023/05/21 09:00:45;;;;;;;3.92;2.20;;;;;;;18.39;65.59;101912.69;5078325;27;100977;-29
2023/05/21 09:03:12;;;;;;;3.80;2.15;;;;;;;18.54;65.32;101923.47;5097050;27;98171;-28
2023/05/21 09:05:41;;;;;;;4.13;2.25;;;;;;;18.64;65.20;101922.63;5078542;27;96607;-27
2023/05/21 09:08:33;;;;;;;7.03;2.42;;;;;;;18.57;64.77;101904.91;5078421;27;96689;-28
2023/05/21 09:11:00;;;;;;;4.07;2.10;;;;;;;18.68;64.51;101910.41;5096471;27;98680;-27
2023/05/21 09:13:27;;;;;;;5.07;2.58;;;;;;;18.68;64.45;101898.56;5078377;27;101247;-28
2023/05/21 09:15:53;;;;;;;3.33;1.92;;;;;;;18.63;64.59;101890.69;5078461;27;96768;-28
2023/05/21 09:18:18;;;;;;;3.80;2.30;;;;;;;18.85;64.27;101900.88;5097251;27;96766;-27
2023/05/21 09:20:44;;;;;;;3.80;2.20;;;;;;;19.02;63.26;101894.03;5096010;27;97416;-27
2023/05/21 09:23:15;;;;;;;4.57;2.50;;;;;;;19.24;61.97;101904.16;5096689;27;98004;-28
2023/05/21 09:25:44;;;;;;;4.63;2.53;;;;;;;19.40;62.04;101923.00;5097082;27;96767;-28
2023/05/21 09:28:17;;;;;;;3.65;2.13;;;;;;;19.37;61.79;101893.00;5078264;27;96890;-28
2023/05/21 09:30:47;;;;;;;4.88;2.47;;;;;;;19.31;62.07;101905.41;5077718;27;101077;-28
2023/05/21 09:33:23;;;;;;;4.80;2.28;;;;;;;19.33;61.14;101902.53;5076912;27;101419;-27
2023/05/21 09:35:49;;;;;;;4.78;2.72;;;;;;;19.44;61.41;101902.50;5078066;27;96701;-27
2023/05/21 09:38:15;;;;;;;3.03;2.03;;;;;;;19.49;61.45;101889.25;5096935;27;96859;-28
2023/05/21 09:40:46;;;;;;;4.18;2.40;;;;;;;19.81;61.02;101905.00;5096426;27;98454;-28
2023/05/21 09:43:15;;;;;;;5.93;2.50;;;;;;;20.18;59.61;101895.47;5077595;27;100764;-28
2023/05/21 09:45:54;;;;;;;3.67;2.10;;;;;;;20.55;59.23;101890.44;5111963;27;96597;-27
2023/05/21 09:48:33;;;;;;;5.10;2.30;;;;;;;20.84;58.81;101890.66;5112323;27;96730;-28
2023/05/21 09:51:18;;;;;;;4.60;2.30;;;;;;;21.09;57.94;101899.47;5077503;27;101235;-28
2023/05/21 09:53:48;;;;;;;4.00;2.20;;;;;;;21.14;57.24;101878.78;5077258;27;100574;-28
2023/05/21 09:56:14;;;;;;;4.25;2.13;;;;;;;21.13;56.18;101890.78;5077613;27;96691;-28
2023/05/21 09:58:39;;;;;;;2.85;1.55;;;;;;;21.05;57.11;101892.50;5096669;27;96731;-27
2023/05/21 10:01:06;;;;;;;5.78;2.60;;;;;;;21.14;56.06;101900.81;5095930;27;99312;-27
2023/05/21 10:03:32;;;;;;;3.63;2.03;;;;;;;21.09;56.72;101885.69;5077759;27;101388;-27
2023/05/21 10:05:58;;;;;;;4.03;2.08;;;;;;;21.16;56.39;101882.25;5077659;27;96804;-28
2023/05/21 10:08:30;;;;;;;3.85;1.88;;;;;;;21.33;56.48;101875.22;5077586;27;97484;-27
2023/05/21 10:10:55;;;;;;;3.97;2.30;;;;;;;21.55;56.40;101879.69;5076791;27;101448;-27
2023/05/21 10:13:22;;;;;;;4.43;2.38;;;;;;;21.62;54.22;101885.50;5095857;27;97792;-27
2023/05/21 10:15:54;;;;;;;4.20;2.30;;;;;;;21.71;54.73;101878.25;5077708;27;97095;-27
2023/05/21 10:18:22;;;;;;;3.70;2.15;;;;;;;21.57;55.05;101882.28;5096004;27;96663;-29
2023/05/21 10:20:48;;;;;;;5.60;2.50;;;;;;;21.53;55.12;101876.19;5077102;27;101447;-27
2023/05/21 10:23:13;;;;;;;4.10;1.98;;;;;;;21.54;55.31;101875.16;5096926;27;98964;-27
2023/05/21 10:25:40;;;;;;;4.45;2.30;;;;;;;21.62;55.11;101878.09;5099703;27;96559;-27
2023/05/21 10:28:06;;;;;;;3.83;2.20;;;;;;;21.71;54.53;101879.13;5116134;27;96818;-27
2023/05/21 10:30:32;;;;;;;3.88;2.13;;;;;;;21.82;54.67;101872.63;5099469;27;97605;-27
2023/05/21 10:32:58;;;;;;;4.63;2.33;;;;;;;21.97;54.17;101873.94;5080018;27;101104;-27
2023/05/21 10:35:24;;;;;;;3.55;1.80;;;;;;;22.09;53.68;101871.91;5098902;27;96642;-27
2023/05/21 10:37:50;;;;;;;3.65;2.45;;;;;;;22.20;53.71;101868.13;5080726;27;96820;-29
2023/05/21 10:40:16;;;;;;;4.93;2.22;;;;;;;22.26;54.24;101868.47;5115174;27;100905;-28
2023/05/21 10:43:18;;;;;;;3.05;2.08;;;;;;;22.38;52.79;101871.06;5099240;27;97826;-28
2023/05/21 10:46:11;;;;;;;3.92;1.95;;;;;;;22.33;52.85;101871.50;5099366;27;96589;-28
2023/05/21 10:48:51;;;;;;;5.55;2.22;;;;;;;22.34;52.44;101876.00;5099705;27;96565;-27
2023/05/21 10:51:25;;;;;;;3.63;2.08;;;;;;;22.33;51.83;101860.44;5099002;27;97581;-27
2023/05/21 10:54:27;;;;;;;4.68;2.28;;;;;;;22.45;52.71;101856.53;5099276;27;99764;-27
2023/05/21 10:56:56;;;;;;;4.55;2.05;;;;;;;22.59;52.77;101854.31;5099286;27;96536;-27
2023/05/21 10:59:40;;;;;;;4.80;2.30;;;;;;;22.65;52.79;101850.97;5099129;27;96810;-28
2023/05/21 11:02:07;;;;;;;4.88;2.40;;;;;;;22.59;52.37;101844.13;5098355;27;99747;-27
2023/05/21 11:04:38;;;;;;;5.07;1.88;;;;;;;22.62;52.08;101840.19;5079983;27;101012;-27
2023/05/21 11:07:04;;;;;;;3.22;2.20;;;;;;;22.62;52.09;101837.44;5080303;27;96791;-27
2023/05/21 11:09:29;;;;;;;4.57;2.20;;;;;;;22.66;52.56;101839.75;5098796;27;96848;-28
2023/05/21 11:11:59;;;;;;;3.47;2.05;;;;;;;22.56;51.36;101841.69;5098486;27;102669;-27
2023/05/21 11:14:34;;;;;;;4.38;2.30;;;;;;;22.65;51.95;101835.25;5098513;27;98198;-27
2023/05/21 11:17:36;;;;;;;3.63;2.03;;;;;;;22.73;51.96;101833.66;5099137;27;96495;-27
2023/05/21 11:20:12;;;;;;;;;;;;;;;22.75;52.05;101843.53;5077566;27;97035;-28
2023/05/21 11:22:37;;;;;;;3.47;2.13;;;;;;;22.90;51.39;101830.94;5080007;27;101243;-28
2023/05/21 11:25:03;;;;;;;3.70;2.05;;;;;;;22.95;51.40;101827.72;5098758;27;98791;-28